This is the latest recevied weather packets stored in our database for station/object DL9TK-10. If no packets are shown the sender has not sent any weather packets the latest 1 day(s).
| Time | Temp. | Humidity | Pressure | Rain* | Wind** | Luminosity | Snow |
|---|---|---|---|---|---|---|---|
| 1777747318 | 27.22° C | 27% | 1014.3 hPa | - | - | - | - |
| 1777746418 | 27.78° C | 27% | 1014.1 hPa | - | - | - | - |
| 1777745518 | 28.33° C | 27% | 1013.9 hPa | - | - | - | - |
| 1777744618 | 28.89° C | 27% | 1014 hPa | - | - | - | - |
| 1777743717 | 29.44° C | 26% | 1014.1 hPa | - | - | - | - |
| 1777742817 | 30° C | 25% | 1014 hPa | - | - | - | - |
| 1777741917 | 30.56° C | 25% | 1014.1 hPa | - | - | - | - |
| 1777741017 | 30.56° C | 25% | 1014.2 hPa | - | - | - | - |
| 1777740117 | 30.56° C | 23% | 1014.3 hPa | - | - | - | - |
| 1777739217 | 31.11° C | 24% | 1014.4 hPa | - | - | - | - |
| 1777738317 | 31.11° C | 24% | 1014.5 hPa | - | - | - | - |
| 1777737417 | 31.11° C | 24% | 1014.7 hPa | - | - | - | - |
| 1777736517 | 31.67° C | 22% | 1014.8 hPa | - | - | - | - |
| 1777735617 | 31.67° C | 22% | 1015 hPa | - | - | - | - |
| 1777734717 | 32.22° C | 22% | 1014.9 hPa | - | - | - | - |
| 1777733817 | 32.22° C | 21% | 1015.1 hPa | - | - | - | - |
| 1777732917 | 32.22° C | 21% | 1015.3 hPa | - | - | - | - |
| 1777732016 | 32.22° C | 21% | 1015.5 hPa | - | - | - | - |
| 1777731116 | 32.22° C | 21% | 1015.5 hPa | - | - | - | - |
| 1777730216 | 32.22° C | 21% | 1015.7 hPa | - | - | - | - |
| 1777729316 | 31.67° C | 21% | 1015.8 hPa | - | - | - | - |
| 1777728416 | 31.67° C | 21% | 1016 hPa | - | - | - | - |
| 1777727516 | 31.67° C | 21% | 1016.2 hPa | - | - | - | - |
| 1777726616 | 31.67° C | 21% | 1016.5 hPa | - | - | - | - |
| 1777725716 | 31.11° C | 22% | 1016.6 hPa | - | - | - | - |
* Rain since midnight (hover to see other rain measurements)
** Current wind speed in m/s (hover to see current wind gust speed)